Aviation Digital Data Service (ADDS)

Output produced by METARs form (1608 UTC 24 October 2014)
found at http://www.aviationweather.gov/adds/metars/
 
KSEG 241553Z AUTO 30009KT 10SM CLR 17/04 A2994 RMK AO2 SLP139 T01720039
KSEG 241453Z AUTO 33005G16KT 10SM CLR 16/04 A2995 RMK AO2 SLP142 T01560044 50003
KSEG 241353Z AUTO 29007KT 10SM CLR 14/04 A2996 RMK AO2 SLP144 T01390044
KSEG 241253Z AUTO 30008KT 10SM FEW037 13/06 A2995 RMK AO2 SLP142 T01330056
KSEG 241153Z AUTO 31003KT 10SM CLR 11/06 A2994 RMK AO2 SLP140 T01110056 10139 20106 51003
KSEG 241053Z AUTO VRB04KT 10SM BKN043 12/06 A2994 RMK AO2 SLP139 T01220061
KSEG 240953Z AUTO 32006KT 10SM BKN038 13/06 A2994 RMK AO2 SLP137 T01330061
KSEG 240853Z AUTO 34004KT 10SM OVC034 13/06 A2993 RMK AO2 SLP136 T01330061 51011
KSEG 240753Z AUTO 33007KT 10SM OVC034 13/06 A2992 RMK AO2 SLP132 T01330061
KSEG 240653Z AUTO 32008KT 10SM OVC038 14/06 A2992 RMK AO2 SLP130 T01390056
KSEG 240553Z AUTO 34010KT 10SM BKN039 OVC050 14/06 A2990 RMK AO2 SLP124 T01390056 10150 20139 56007
KSEG 240453Z AUTO 34010KT 10SM OVC041 14/05 A2990 RMK AO2 SLP125 T01390050 401610100
KSEG 240353Z AUTO 33010KT 10SM OVC045 14/05 A2992 RMK AO2 SLP130 T01440050
KSEG 240253Z AUTO 34009KT 10SM OVC047 14/04 A2992 RMK AO2 SLP132 T01440044 50003
KSEG 240153Z AUTO 34012G19KT 10SM OVC049 15/04 A2992 RMK AO2 SLP133 T01500044
KSEG 240053Z AUTO 36014G21KT 10SM OVC050 15/04 A2991 RMK AO2 SLP129 T01500044
KSEG 232353Z AUTO 33006KT 10SM OVC044 14/06 A2991 RMK AO2 SLP130 T01440061 10161 20144 51019
KSEG 232253Z AUTO 01009G18KT 10SM OVC042 16/07 A2990 RMK AO2 SLP126 T01560067
KSEG 232153Z AUTO 33015G22KT 10SM OVC042 16/07 A2988 RMK AO2 SLP117 T01610067
KSEG 232053Z AUTO VRB04KT 10SM OVC042 16/07 A2986 RMK AO2 SLP110 T01560072 58003
KSEG 231953Z AUTO 35007KT 10SM OVC037 15/07 A2987 RMK AO2 SLP115 T01500067
KSEG 231853Z AUTO 34014G25KT 10SM OVC036 15/07 A2987 RMK AO2 PK WND 34026/1809 SLP115 T01500067
KSEG 231753Z AUTO 35013G24KT 10SM OVC036 16/07 A2987 RMK AO2 PK WND 35026/1704 SLP113 T01560067 10156 20111 56015
KSEG 231653Z AUTO 34011G26KT 10SM OVC031 14/07 A2988 RMK AO2 PK WND 33029/1625 SLP118 T01440067
KSEG 231622Z AUTO 35014G22KT 10SM OVC030 13/07 A2989 RMK AO2 PK WND 34027/1610 T01330067
KSEG 231553Z AUTO 34013G21KT 10SM OVC028 13/07 A2990 RMK AO2 SLP124 T01330067
KSEG 231453Z AUTO 34012KT 10SM OVC027 12/06 A2991 RMK AO2 SLP130 T01220061 50001
KSEG 231353Z AUTO 34015G18KT 10SM OVC027 12/06 A2992 RMK AO2 SLP131 T01170061
KSEG 231253Z AUTO 33007G17KT 10SM OVC028 12/06 A2992 RMK AO2 SLP131 T01170056
KSEG 231153Z AUTO 33011KT 10SM OVC029 11/06 A2991 RMK AO2 SLP129 60000 T01110056 10111 20100 53001
KSEG 231053Z AUTO 32007KT 10SM OVC031 11/05 A2990 RMK AO2 SLP125 T01110050
KSEG 230953Z AUTO 01006KT 10SM OVC038 11/06 A2991 RMK AO2 SLP130 T01060056
KSEG 230853Z AUTO 34010G19KT 10SM FEW030 FEW070 BKN085 11/06 A2991 RMK AO2 SLP127 60000 T01060056 56010
KSEG 230753Z AUTO 36008KT 10SM OVC070 11/06 A2991 RMK AO2 RAB17E48 SLP129 P0000 T01060061
KSEG 230721Z AUTO 36012G18KT 10SM -RA FEW028 OVC060 11/06 A2992 RMK AO2 RAB17 P0000 T01060061
KSEG 230653Z AUTO 34010G21KT 10SM OVC027 11/06 A2992 RMK AO2 SLP134 T01060061
KSEG 230553Z AUTO 34012KT 10SM OVC025 11/06 A2994 RMK AO2 SLP138 60000 T01110061 10111 20094 56017
KSEG 230453Z AUTO 34013G20KT 10SM OVC025 11/06 A2995 RMK AO2 SLP142 T01110061 401280094